sensor_id;sensor_type;location;lat;lon;timestamp;temperature;humidity
20829;DHT22;10575;50.124;8.582;2023-11-18T00:00:24;5.20;99.90
20829;DHT22;10575;50.124;8.582;2023-11-18T00:02:50;5.20;99.90
20829;DHT22;10575;50.124;8.582;2023-11-18T00:05:15;5.20;99.90
20829;DHT22;10575;50.124;8.582;2023-11-18T00:07:41;5.20;99.90
20829;DHT22;10575;50.124;8.582;2023-11-18T00:10:07;5.20;99.90
20829;DHT22;10575;50.124;8.582;2023-11-18T00:12:34;5.20;99.90
20829;DHT22;10575;50.124;8.582;2023-11-18T00:15:06;5.20;99.90
20829;DHT22;10575;50.124;8.582;2023-11-18T00:17:34;5.20;99.90
20829;DHT22;10575;50.124;8.582;2023-11-18T00:19:59;5.20;99.90
20829;DHT22;10575;50.124;8.582;2023-11-18T00:22:25;5.20;99.90
20829;DHT22;10575;50.124;8.582;2023-11-18T00:24:50;5.10;99.90
20829;DHT22;10575;50.124;8.582;2023-11-18T00:27:17;5.10;99.90
20829;DHT22;10575;50.124;8.582;2023-11-18T00:29:43;5.10;99.90
20829;DHT22;10575;50.124;8.582;2023-11-18T00:32:11;5.10;99.90
20829;DHT22;10575;50.124;8.582;2023-11-18T00:34:37;5.10;99.90
20829;DHT22;10575;50.124;8.582;2023-11-18T00:37:02;5.20;99.90
20829;DHT22;10575;50.124;8.582;2023-11-18T00:39:29;5.20;99.90
20829;DHT22;10575;50.124;8.582;2023-11-18T00:41:54;5.20;99.90
20829;DHT22;10575;50.124;8.582;2023-11-18T00:44:21;5.20;99.90
20829;DHT22;10575;50.124;8.582;2023-11-18T00:46:47;5.20;99.90
20829;DHT22;10575;50.124;8.582;2023-11-18T00:49:12;5.20;99.90
20829;DHT22;10575;50.124;8.582;2023-11-18T00:51:40;5.10;99.90
20829;DHT22;10575;50.124;8.582;2023-11-18T00:54:07;5.10;99.90
20829;DHT22;10575;50.124;8.582;2023-11-18T00:56:33;5.10;99.90
20829;DHT22;10575;50.124;8.582;2023-11-18T00:58:59;5.10;99.90
20829;DHT22;10575;50.124;8.582;2023-11-18T01:01:26;5.10;99.90
20829;DHT22;10575;50.124;8.582;2023-11-18T01:03:52;5.10;99.90
20829;DHT22;10575;50.124;8.582;2023-11-18T01:06:19;5.10;99.90
20829;DHT22;10575;50.124;8.582;2023-11-18T01:08:45;5.10;99.90
20829;DHT22;10575;50.124;8.582;2023-11-18T01:11:15;5.00;99.90
20829;DHT22;10575;50.124;8.582;2023-11-18T01:13:40;4.90;99.90
20829;DHT22;10575;50.124;8.582;2023-11-18T01:16:06;4.90;99.90
20829;DHT22;10575;50.124;8.582;2023-11-18T01:18:32;4.90;99.90
20829;DHT22;10575;50.124;8.582;2023-11-18T01:20:58;4.70;99.90
20829;DHT22;10575;50.124;8.582;2023-11-18T01:23:24;4.70;99.90
20829;DHT22;10575;50.124;8.582;2023-11-18T01:25:49;4.70;99.90
20829;DHT22;10575;50.124;8.582;2023-11-18T01:28:16;4.70;99.90
20829;DHT22;10575;50.124;8.582;2023-11-18T01:30:42;4.50;99.90
20829;DHT22;10575;50.124;8.582;2023-11-18T01:33:10;4.40;99.90
20829;DHT22;10575;50.124;8.582;2023-11-18T01:35:35;4.40;99.90
20829;DHT22;10575;50.124;8.582;2023-11-18T01:38:01;4.40;99.90
20829;DHT22;10575;50.124;8.582;2023-11-18T01:40:26;4.30;99.90
20829;DHT22;10575;50.124;8.582;2023-11-18T01:42:56;4.20;99.90
20829;DHT22;10575;50.124;8.582;2023-11-18T01:45:21;4.10;99.90
20829;DHT22;10575;50.124;8.582;2023-11-18T01:47:47;4.00;99.90
20829;DHT22;10575;50.124;8.582;2023-11-18T01:50:15;3.90;99.90
20829;DHT22;10575;50.124;8.582;2023-11-18T01:52:42;3.70;99.90
20829;DHT22;10575;50.124;8.582;2023-11-18T01:55:09;3.60;99.90
20829;DHT22;10575;50.124;8.582;2023-11-18T01:57:35;3.50;99.90
20829;DHT22;10575;50.124;8.582;2023-11-18T02:00:02;3.40;99.90
20829;DHT22;10575;50.124;8.582;2023-11-18T02:02:32;3.30;99.90
20829;DHT22;10575;50.124;8.582;2023-11-18T02:04:59;3.30;99.90
20829;DHT22;10575;50.124;8.582;2023-11-18T02:07:27;3.30;99.90
20829;DHT22;10575;50.124;8.582;2023-11-18T02:09:54;3.20;99.90
20829;DHT22;10575;50.124;8.582;2023-11-18T02:12:31;3.10;99.90
20829;DHT22;10575;50.124;8.582;2023-11-18T02:15:01;3.10;99.90
20829;DHT22;10575;50.124;8.582;2023-11-18T02:17:28;3.10;99.90
20829;DHT22;10575;50.124;8.582;2023-11-18T02:19:56;3.10;99.90
20829;DHT22;10575;50.124;8.582;2023-11-18T02:22:25;3.10;99.90
20829;DHT22;10575;50.124;8.582;2023-11-18T02:24:53;3.10;99.90
20829;DHT22;10575;50.124;8.582;2023-11-18T02:27:18;3.10;99.90
20829;DHT22;10575;50.124;8.582;2023-11-18T02:29:47;3.10;99.90
20829;DHT22;10575;50.124;8.582;2023-11-18T02:32:30;3.10;99.90
20829;DHT22;10575;50.124;8.582;2023-11-18T02:35:23;3.10;99.90
20829;DHT22;10575;50.124;8.582;2023-11-18T02:37:52;3.10;99.90
20829;DHT22;10575;50.124;8.582;2023-11-18T02:40:37;3.10;99.90
20829;DHT22;10575;50.124;8.582;2023-11-18T02:43:04;3.10;99.90
20829;DHT22;10575;50.124;8.582;2023-11-18T02:45:31;3.10;99.90
20829;DHT22;10575;50.124;8.582;2023-11-18T02:47:57;3.10;99.90
20829;DHT22;10575;50.124;8.582;2023-11-18T02:50:28;3.00;99.90
20829;DHT22;10575;50.124;8.582;2023-11-18T02:52:54;3.00;99.90
20829;DHT22;10575;50.124;8.582;2023-11-18T02:55:20;3.00;99.90
20829;DHT22;10575;50.124;8.582;2023-11-18T02:57:49;2.90;99.90
20829;DHT22;10575;50.124;8.582;2023-11-18T03:00:17;2.90;99.90
20829;DHT22;10575;50.124;8.582;2023-11-18T03:02:44;2.90;99.90
20829;DHT22;10575;50.124;8.582;2023-11-18T03:05:14;2.90;99.90
20829;DHT22;10575;50.124;8.582;2023-11-18T03:07:47;2.90;99.90
20829;DHT22;10575;50.124;8.582;2023-11-18T03:10:21;3.00;99.90
20829;DHT22;10575;50.124;8.582;2023-11-18T03:12:48;3.10;99.90
20829;DHT22;10575;50.124;8.582;2023-11-18T03:15:14;3.00;99.90
20829;DHT22;10575;50.124;8.582;2023-11-18T03:17:45;3.10;99.90
20829;DHT22;10575;50.124;8.582;2023-11-18T03:20:12;3.00;99.90
20829;DHT22;10575;50.124;8.582;2023-11-18T03:22:40;3.00;99.90
20829;DHT22;10575;50.124;8.582;2023-11-18T03:25:06;3.00;99.90
20829;DHT22;10575;50.124;8.582;2023-11-18T03:27:33;3.00;99.90
20829;DHT22;10575;50.124;8.582;2023-11-18T03:29:58;2.90;99.90
20829;DHT22;10575;50.124;8.582;2023-11-18T03:32:24;2.90;99.90
20829;DHT22;10575;50.124;8.582;2023-11-18T03:34:49;2.90;99.90
20829;DHT22;10575;50.124;8.582;2023-11-18T03:37:15;2.90;99.90
20829;DHT22;10575;50.124;8.582;2023-11-18T03:39:40;3.00;99.90
20829;DHT22;10575;50.124;8.582;2023-11-18T03:42:06;3.00;99.90
20829;DHT22;10575;50.124;8.582;2023-11-18T03:44:32;3.00;99.90
20829;DHT22;10575;50.124;8.582;2023-11-18T03:46:57;3.10;99.90
20829;DHT22;10575;50.124;8.582;2023-11-18T03:49:23;3.10;99.90
20829;DHT22;10575;50.124;8.582;2023-11-18T03:51:48;3.40;99.90
20829;DHT22;10575;50.124;8.582;2023-11-18T03:54:14;3.60;99.90
20829;DHT22;10575;50.124;8.582;2023-11-18T03:56:40;3.80;99.90
20829;DHT22;10575;50.124;8.582;2023-11-18T03:59:05;3.70;99.90
20829;DHT22;10575;50.124;8.582;2023-11-18T04:01:31;3.60;99.90
20829;DHT22;10575;50.124;8.582;2023-11-18T04:03:57;3.60;99.90
20829;DHT22;10575;50.124;8.582;2023-11-18T04:06:23;3.50;99.90
20829;DHT22;10575;50.124;8.582;2023-11-18T04:08:50;3.70;99.90
20829;DHT22;10575;50.124;8.582;2023-11-18T04:11:16;3.80;99.90
20829;DHT22;10575;50.124;8.582;2023-11-18T04:13:42;3.80;99.90
20829;DHT22;10575;50.124;8.582;2023-11-18T04:16:12;4.00;99.90
20829;DHT22;10575;50.124;8.582;2023-11-18T04:18:45;4.10;99.90
20829;DHT22;10575;50.124;8.582;2023-11-18T04:21:11;4.10;99.90
20829;DHT22;10575;50.124;8.582;2023-11-18T04:23:39;4.10;99.90
20829;DHT22;10575;50.124;8.582;2023-11-18T04:26:05;4.10;99.90
20829;DHT22;10575;50.124;8.582;2023-11-18T04:28:31;4.10;99.90
20829;DHT22;10575;50.124;8.582;2023-11-18T04:30:56;4.00;99.90
20829;DHT22;10575;50.124;8.582;2023-11-18T04:33:22;3.90;99.90
20829;DHT22;10575;50.124;8.582;2023-11-18T04:35:50;3.90;99.90
20829;DHT22;10575;50.124;8.582;2023-11-18T04:38:15;4.00;99.90
20829;DHT22;10575;50.124;8.582;2023-11-18T04:40:41;4.10;99.90
20829;DHT22;10575;50.124;8.582;2023-11-18T04:43:07;4.20;99.90
20829;DHT22;10575;50.124;8.582;2023-11-18T04:45:33;4.20;99.90
20829;DHT22;10575;50.124;8.582;2023-11-18T04:47:59;4.20;99.90
20829;DHT22;10575;50.124;8.582;2023-11-18T04:50:25;4.20;99.90
20829;DHT22;10575;50.124;8.582;2023-11-18T04:52:50;4.30;99.90
20829;DHT22;10575;50.124;8.582;2023-11-18T04:55:16;4.40;99.90
20829;DHT22;10575;50.124;8.582;2023-11-18T04:57:42;4.40;99.90
20829;DHT22;10575;50.124;8.582;2023-11-18T05:00:08;4.20;99.90
20829;DHT22;10575;50.124;8.582;2023-11-18T05:02:38;4.10;99.90
20829;DHT22;10575;50.124;8.582;2023-11-18T05:05:04;4.10;99.90
20829;DHT22;10575;50.124;8.582;2023-11-18T05:07:31;4.00;99.90
20829;DHT22;10575;50.124;8.582;2023-11-18T05:09:57;4.00;99.90
20829;DHT22;10575;50.124;8.582;2023-11-18T05:12:22;4.10;99.90
20829;DHT22;10575;50.124;8.582;2023-11-18T05:14:48;4.20;99.90
20829;DHT22;10575;50.124;8.582;2023-11-18T05:17:15;4.40;99.90
20829;DHT22;10575;50.124;8.582;2023-11-18T05:19:41;4.50;99.90
20829;DHT22;10575;50.124;8.582;2023-11-18T05:22:08;4.50;99.90
20829;DHT22;10575;50.124;8.582;2023-11-18T05:24:33;4.50;99.90
20829;DHT22;10575;50.124;8.582;2023-11-18T05:26:59;4.40;99.90
20829;DHT22;10575;50.124;8.582;2023-11-18T05:29:27;4.10;99.90
20829;DHT22;10575;50.124;8.582;2023-11-18T05:31:53;4.00;99.90
20829;DHT22;10575;50.124;8.582;2023-11-18T05:34:20;3.80;99.90
20829;DHT22;10575;50.124;8.582;2023-11-18T05:36:49;3.70;99.90
20829;DHT22;10575;50.124;8.582;2023-11-18T05:39:20;3.70;99.90
20829;DHT22;10575;50.124;8.582;2023-11-18T05:41:46;3.70;99.90
20829;DHT22;10575;50.124;8.582;2023-11-18T05:44:15;3.90;99.90
20829;DHT22;10575;50.124;8.582;2023-11-18T05:46:45;3.90;99.90
20829;DHT22;10575;50.124;8.582;2023-11-18T05:49:17;4.00;99.90
20829;DHT22;10575;50.124;8.582;2023-11-18T05:51:43;4.10;99.90
20829;DHT22;10575;50.124;8.582;2023-11-18T05:54:09;4.00;99.90
20829;DHT22;10575;50.124;8.582;2023-11-18T05:56:35;4.00;99.90
20829;DHT22;10575;50.124;8.582;2023-11-18T05:59:01;4.00;99.90
20829;DHT22;10575;50.124;8.582;2023-11-18T06:01:28;4.10;99.90
20829;DHT22;10575;50.124;8.582;2023-11-18T06:03:54;4.20;99.90
20829;DHT22;10575;50.124;8.582;2023-11-18T06:06:19;4.30;99.90
20829;DHT22;10575;50.124;8.582;2023-11-18T06:08:47;4.50;99.90
20829;DHT22;10575;50.124;8.582;2023-11-18T06:11:14;4.70;99.90
20829;DHT22;10575;50.124;8.582;2023-11-18T06:13:51;4.70;99.90
20829;DHT22;10575;50.124;8.582;2023-11-18T06:16:21;4.70;99.90
20829;DHT22;10575;50.124;8.582;2023-11-18T06:18:48;4.70;99.90
20829;DHT22;10575;50.124;8.582;2023-11-18T06:21:16;4.80;99.90
20829;DHT22;10575;50.124;8.582;2023-11-18T06:23:42;4.90;99.90
20829;DHT22;10575;50.124;8.582;2023-11-18T06:26:08;4.90;99.90
20829;DHT22;10575;50.124;8.582;2023-11-18T06:28:39;5.00;99.90
20829;DHT22;10575;50.124;8.582;2023-11-18T06:31:05;4.90;99.90
20829;DHT22;10575;50.124;8.582;2023-11-18T06:33:36;4.90;99.90
20829;DHT22;10575;50.124;8.582;2023-11-18T06:36:03;4.90;99.90
20829;DHT22;10575;50.124;8.582;2023-11-18T06:38:29;4.80;99.90
20829;DHT22;10575;50.124;8.582;2023-11-18T06:40:56;4.70;99.90
20829;DHT22;10575;50.124;8.582;2023-11-18T06:43:23;4.80;99.90
20829;DHT22;10575;50.124;8.582;2023-11-18T06:45:50;4.90;99.90
20829;DHT22;10575;50.124;8.582;2023-11-18T06:48:16;5.00;99.90
20829;DHT22;10575;50.124;8.582;2023-11-18T06:50:45;5.10;99.90
20829;DHT22;10575;50.124;8.582;2023-11-18T06:53:11;5.10;99.90
20829;DHT22;10575;50.124;8.582;2023-11-18T06:55:38;5.20;99.90
20829;DHT22;10575;50.124;8.582;2023-11-18T06:58:04;5.20;99.90
20829;DHT22;10575;50.124;8.582;2023-11-18T07:00:30;5.20;99.90
20829;DHT22;10575;50.124;8.582;2023-11-18T07:02:55;5.20;99.90
20829;DHT22;10575;50.124;8.582;2023-11-18T07:05:21;5.10;99.90
20829;DHT22;10575;50.124;8.582;2023-11-18T07:07:49;5.10;99.90
20829;DHT22;10575;50.124;8.582;2023-11-18T07:10:15;5.20;99.90
20829;DHT22;10575;50.124;8.582;2023-11-18T07:12:44;5.10;99.90
20829;DHT22;10575;50.124;8.582;2023-11-18T07:15:09;5.30;99.90
20829;DHT22;10575;50.124;8.582;2023-11-18T07:17:36;5.20;99.90
20829;DHT22;10575;50.124;8.582;2023-11-18T07:20:01;5.20;99.90
20829;DHT22;10575;50.124;8.582;2023-11-18T07:22:27;5.30;99.90
20829;DHT22;10575;50.124;8.582;2023-11-18T07:24:52;5.30;99.90
20829;DHT22;10575;50.124;8.582;2023-11-18T07:27:18;5.30;99.90
20829;DHT22;10575;50.124;8.582;2023-11-18T07:29:43;5.40;99.90
20829;DHT22;10575;50.124;8.582;2023-11-18T07:32:10;5.40;99.90
20829;DHT22;10575;50.124;8.582;2023-11-18T07:34:36;5.50;99.90
20829;DHT22;10575;50.124;8.582;2023-11-18T07:37:03;5.60;99.90
20829;DHT22;10575;50.124;8.582;2023-11-18T07:39:28;5.60;99.90
20829;DHT22;10575;50.124;8.582;2023-11-18T07:42:10;5.60;99.90
20829;DHT22;10575;50.124;8.582;2023-11-18T07:44:36;5.70;99.90
20829;DHT22;10575;50.124;8.582;2023-11-18T07:47:04;5.80;99.90
20829;DHT22;10575;50.124;8.582;2023-11-18T07:49:31;5.90;99.90
20829;DHT22;10575;50.124;8.582;2023-11-18T07:51:56;5.90;99.90
20829;DHT22;10575;50.124;8.582;2023-11-18T07:54:22;6.00;99.90
20829;DHT22;10575;50.124;8.582;2023-11-18T07:56:49;6.00;99.90
20829;DHT22;10575;50.124;8.582;2023-11-18T07:59:16;6.00;99.90
20829;DHT22;10575;50.124;8.582;2023-11-18T08:01:43;6.00;99.90
20829;DHT22;10575;50.124;8.582;2023-11-18T08:04:12;6.00;99.90
20829;DHT22;10575;50.124;8.582;2023-11-18T08:06:42;6.10;99.90
20829;DHT22;10575;50.124;8.582;2023-11-18T08:09:09;6.10;99.90
20829;DHT22;10575;50.124;8.582;2023-11-18T08:11:38;6.10;99.90
20829;DHT22;10575;50.124;8.582;2023-11-18T08:14:06;6.00;99.90
20829;DHT22;10575;50.124;8.582;2023-11-18T08:16:33;6.00;99.90
20829;DHT22;10575;50.124;8.582;2023-11-18T08:18:58;6.00;99.90
20829;DHT22;10575;50.124;8.582;2023-11-18T08:21:24;5.90;99.90
20829;DHT22;10575;50.124;8.582;2023-11-18T08:23:49;6.00;99.90
20829;DHT22;10575;50.124;8.582;2023-11-18T08:26:15;6.00;99.90
20829;DHT22;10575;50.124;8.582;2023-11-18T08:28:40;6.00;99.90
20829;DHT22;10575;50.124;8.582;2023-11-18T08:31:06;5.90;99.90
20829;DHT22;10575;50.124;8.582;2023-11-18T08:33:32;5.90;99.90
20829;DHT22;10575;50.124;8.582;2023-11-18T08:35:59;5.90;99.90
20829;DHT22;10575;50.124;8.582;2023-11-18T08:38:27;5.80;99.90
20829;DHT22;10575;50.124;8.582;2023-11-18T08:40:53;5.90;99.90
20829;DHT22;10575;50.124;8.582;2023-11-18T08:43:20;6.00;99.90
20829;DHT22;10575;50.124;8.582;2023-11-18T08:45:46;6.10;99.90
20829;DHT22;10575;50.124;8.582;2023-11-18T08:48:13;6.10;99.90
20829;DHT22;10575;50.124;8.582;2023-11-18T08:50:39;6.00;99.90
20829;DHT22;10575;50.124;8.582;2023-11-18T08:53:08;6.00;99.90
20829;DHT22;10575;50.124;8.582;2023-11-18T08:55:35;6.10;99.90
20829;DHT22;10575;50.124;8.582;2023-11-18T08:58:08;6.30;99.90
20829;DHT22;10575;50.124;8.582;2023-11-18T09:00:55;6.30;99.90
20829;DHT22;10575;50.124;8.582;2023-11-18T09:03:24;6.30;99.90
20829;DHT22;10575;50.124;8.582;2023-11-18T09:06:09;6.20;99.90
20829;DHT22;10575;50.124;8.582;2023-11-18T09:08:45;6.20;99.90
20829;DHT22;10575;50.124;8.582;2023-11-18T09:11:12;6.20;99.90
20829;DHT22;10575;50.124;8.582;2023-11-18T09:13:43;6.30;99.90
20829;DHT22;10575;50.124;8.582;2023-11-18T09:16:11;6.50;99.90
20829;DHT22;10575;50.124;8.582;2023-11-18T09:18:41;6.60;99.90
20829;DHT22;10575;50.124;8.582;2023-11-18T09:21:08;6.50;99.90
20829;DHT22;10575;50.124;8.582;2023-11-18T09:23:40;6.50;99.90
20829;DHT22;10575;50.124;8.582;2023-11-18T09:26:06;6.70;99.90
20829;DHT22;10575;50.124;8.582;2023-11-18T09:28:36;6.70;99.90
20829;DHT22;10575;50.124;8.582;2023-11-18T09:31:02;6.70;99.90
20829;DHT22;10575;50.124;8.582;2023-11-18T09:33:31;6.60;99.90
20829;DHT22;10575;50.124;8.582;2023-11-18T09:36:04;6.70;99.90
20829;DHT22;10575;50.124;8.582;2023-11-18T09:38:34;6.90;99.90
20829;DHT22;10575;50.124;8.582;2023-11-18T09:41:06;6.90;99.90
20829;DHT22;10575;50.124;8.582;2023-11-18T09:43:43;7.00;99.90
20829;DHT22;10575;50.124;8.582;2023-11-18T09:46:16;7.00;99.90
20829;DHT22;10575;50.124;8.582;2023-11-18T09:48:46;6.90;99.90
20829;DHT22;10575;50.124;8.582;2023-11-18T09:51:24;7.00;99.90
20829;DHT22;10575;50.124;8.582;2023-11-18T09:53:53;7.10;99.90
20829;DHT22;10575;50.124;8.582;2023-11-18T10:01:42;7.30;99.90
20829;DHT22;10575;50.124;8.582;2023-11-18T10:04:13;7.30;99.90
20829;DHT22;10575;50.124;8.582;2023-11-18T10:06:39;7.30;99.90
20829;DHT22;10575;50.124;8.582;2023-11-18T10:09:08;7.20;99.90
20829;DHT22;10575;50.124;8.582;2023-11-18T10:11:45;7.20;99.90
20829;DHT22;10575;50.124;8.582;2023-11-18T10:14:13;7.20;99.90
20829;DHT22;10575;50.124;8.582;2023-11-18T10:16:41;7.20;99.90
20829;DHT22;10575;50.124;8.582;2023-11-18T10:19:07;7.20;99.90
20829;DHT22;10575;50.124;8.582;2023-11-18T10:21:35;7.10;99.90
20829;DHT22;10575;50.124;8.582;2023-11-18T10:24:09;7.10;99.90
20829;DHT22;10575;50.124;8.582;2023-11-18T10:26:55;7.20;99.90
20829;DHT22;10575;50.124;8.582;2023-11-18T10:29:24;7.20;99.90
20829;DHT22;10575;50.124;8.582;2023-11-18T10:32:05;7.30;99.90
20829;DHT22;10575;50.124;8.582;2023-11-18T10:34:35;7.40;99.90
20829;DHT22;10575;50.124;8.582;2023-11-18T10:37:02;7.40;99.90
20829;DHT22;10575;50.124;8.582;2023-11-18T10:39:29;7.40;99.90
20829;DHT22;10575;50.124;8.582;2023-11-18T10:42:01;7.40;99.90
20829;DHT22;10575;50.124;8.582;2023-11-18T10:44:28;7.50;99.90
20829;DHT22;10575;50.124;8.582;2023-11-18T10:46:56;7.60;99.90
20829;DHT22;10575;50.124;8.582;2023-11-18T10:49:27;7.50;99.90
20829;DHT22;10575;50.124;8.582;2023-11-18T10:51:53;7.50;99.90
20829;DHT22;10575;50.124;8.582;2023-11-18T10:54:18;7.50;99.90
20829;DHT22;10575;50.124;8.582;2023-11-18T10:56:53;7.50;99.90
20829;DHT22;10575;50.124;8.582;2023-11-18T10:59:22;7.50;99.90
20829;DHT22;10575;50.124;8.582;2023-11-18T11:01:48;7.60;99.90
20829;DHT22;10575;50.124;8.582;2023-11-18T11:04:15;7.60;99.90
20829;DHT22;10575;50.124;8.582;2023-11-18T11:06:49;7.60;99.90
20829;DHT22;10575;50.124;8.582;2023-11-18T11:09:21;7.60;99.90
20829;DHT22;10575;50.124;8.582;2023-11-18T11:12:00;7.50;99.90
20829;DHT22;10575;50.124;8.582;2023-11-18T11:14:34;7.50;99.90
20829;DHT22;10575;50.124;8.582;2023-11-18T11:17:08;7.50;99.90
20829;DHT22;10575;50.124;8.582;2023-11-18T11:19:55;7.50;99.90
20829;DHT22;10575;50.124;8.582;2023-11-18T11:22:38;7.60;99.90
20829;DHT22;10575;50.124;8.582;2023-11-18T11:25:17;7.60;99.90
20829;DHT22;10575;50.124;8.582;2023-11-18T11:27:59;7.70;99.90
20829;DHT22;10575;50.124;8.582;2023-11-18T11:30:40;7.70;99.90
20829;DHT22;10575;50.124;8.582;2023-11-18T11:34:02;7.80;99.90
20829;DHT22;10575;50.124;8.582;2023-11-18T11:36:37;7.90;99.90
20829;DHT22;10575;50.124;8.582;2023-11-18T11:39:08;7.90;99.90
20829;DHT22;10575;50.124;8.582;2023-11-18T11:41:44;8.00;99.90
20829;DHT22;10575;50.124;8.582;2023-11-18T11:44:13;8.00;99.90
20829;DHT22;10575;50.124;8.582;2023-11-18T11:46:38;8.00;99.90
20829;DHT22;10575;50.124;8.582;2023-11-18T11:49:09;8.00;99.90
20829;DHT22;10575;50.124;8.582;2023-11-18T11:51:47;7.90;99.90
20829;DHT22;10575;50.124;8.582;2023-11-18T11:54:24;7.90;99.90
20829;DHT22;10575;50.124;8.582;2023-11-18T11:56:56;7.90;99.90
20829;DHT22;10575;50.124;8.582;2023-11-18T12:02:10;7.80;99.90
20829;DHT22;10575;50.124;8.582;2023-11-18T12:04:37;7.80;99.90
20829;DHT22;10575;50.124;8.582;2023-11-18T12:07:05;7.80;99.90
20829;DHT22;10575;50.124;8.582;2023-11-18T12:09:31;7.80;99.90
20829;DHT22;10575;50.124;8.582;2023-11-18T12:12:13;7.90;99.90
20829;DHT22;10575;50.124;8.582;2023-11-18T12:14:57;7.80;99.90
20829;DHT22;10575;50.124;8.582;2023-11-18T12:20:43;8.00;99.90
20829;DHT22;10575;50.124;8.582;2023-11-18T12:23:23;8.00;99.90
20829;DHT22;10575;50.124;8.582;2023-11-18T12:25:53;8.10;99.90
20829;DHT22;10575;50.124;8.582;2023-11-18T12:28:28;8.10;99.90
20829;DHT22;10575;50.124;8.582;2023-11-18T12:30:56;8.00;99.90
20829;DHT22;10575;50.124;8.582;2023-11-18T12:33:30;8.10;99.90
20829;DHT22;10575;50.124;8.582;2023-11-18T12:39:20;8.20;99.90
20829;DHT22;10575;50.124;8.582;2023-11-18T12:42:05;8.20;99.90
20829;DHT22;10575;50.124;8.582;2023-11-18T12:45:14;8.20;99.90
20829;DHT22;10575;50.124;8.582;2023-11-18T12:47:48;8.20;99.90
20829;DHT22;10575;50.124;8.582;2023-11-18T12:50:15;8.20;99.90
20829;DHT22;10575;50.124;8.582;2023-11-18T12:52:51;8.20;99.90
20829;DHT22;10575;50.124;8.582;2023-11-18T12:55:17;8.10;99.90
20829;DHT22;10575;50.124;8.582;2023-11-18T12:57:48;8.10;99.90
20829;DHT22;10575;50.124;8.582;2023-11-18T13:00:17;8.20;99.90
20829;DHT22;10575;50.124;8.582;2023-11-18T13:02:55;8.20;99.90
20829;DHT22;10575;50.124;8.582;2023-11-18T13:05:23;8.20;99.90
20829;DHT22;10575;50.124;8.582;2023-11-18T13:07:49;8.30;99.90
20829;DHT22;10575;50.124;8.582;2023-11-18T13:10:16;8.30;99.90
20829;DHT22;10575;50.124;8.582;2023-11-18T13:12:43;8.40;99.90
20829;DHT22;10575;50.124;8.582;2023-11-18T13:15:10;8.40;99.90
20829;DHT22;10575;50.124;8.582;2023-11-18T13:17:36;8.40;99.90
20829;DHT22;10575;50.124;8.582;2023-11-18T13:20:14;8.50;99.90
20829;DHT22;10575;50.124;8.582;2023-11-18T13:22:42;8.50;99.90
20829;DHT22;10575;50.124;8.582;2023-11-18T13:25:08;8.50;99.90
20829;DHT22;10575;50.124;8.582;2023-11-18T13:27:35;8.50;99.90
20829;DHT22;10575;50.124;8.582;2023-11-18T13:30:01;8.60;99.90
20829;DHT22;10575;50.124;8.582;2023-11-18T13:32:28;8.60;99.90
20829;DHT22;10575;50.124;8.582;2023-11-18T13:34:55;8.60;99.90
20829;DHT22;10575;50.124;8.582;2023-11-18T13:37:20;8.50;99.90
20829;DHT22;10575;50.124;8.582;2023-11-18T13:39:54;8.50;99.90
20829;DHT22;10575;50.124;8.582;2023-11-18T13:42:22;8.40;99.90
20829;DHT22;10575;50.124;8.582;2023-11-18T13:44:48;8.40;99.90
20829;DHT22;10575;50.124;8.582;2023-11-18T13:47:17;8.40;99.90
20829;DHT22;10575;50.124;8.582;2023-11-18T13:49:43;8.30;99.90
20829;DHT22;10575;50.124;8.582;2023-11-18T13:52:09;8.40;99.90
20829;DHT22;10575;50.124;8.582;2023-11-18T13:54:37;8.40;99.90
20829;DHT22;10575;50.124;8.582;2023-11-18T13:57:04;8.40;99.90
20829;DHT22;10575;50.124;8.582;2023-11-18T13:59:31;8.40;99.90
20829;DHT22;10575;50.124;8.582;2023-11-18T14:01:59;8.40;99.90
20829;DHT22;10575;50.124;8.582;2023-11-18T14:04:28;8.40;99.90
20829;DHT22;10575;50.124;8.582;2023-11-18T14:06:59;8.40;99.90
20829;DHT22;10575;50.124;8.582;2023-11-18T14:09:25;8.40;99.90
20829;DHT22;10575;50.124;8.582;2023-11-18T14:11:52;8.50;99.90
20829;DHT22;10575;50.124;8.582;2023-11-18T14:14:20;8.40;99.90
20829;DHT22;10575;50.124;8.582;2023-11-18T14:16:46;8.40;99.90
20829;DHT22;10575;50.124;8.582;2023-11-18T14:19:12;8.30;99.90
20829;DHT22;10575;50.124;8.582;2023-11-18T14:21:38;8.30;99.90
20829;DHT22;10575;50.124;8.582;2023-11-18T14:24:04;8.30;99.90
20829;DHT22;10575;50.124;8.582;2023-11-18T14:26:30;8.30;99.90
20829;DHT22;10575;50.124;8.582;2023-11-18T14:28:56;8.30;99.90
20829;DHT22;10575;50.124;8.582;2023-11-18T14:31:24;8.30;99.90
20829;DHT22;10575;50.124;8.582;2023-11-18T14:33:50;8.30;99.90
20829;DHT22;10575;50.124;8.582;2023-11-18T14:36:17;8.30;99.90
20829;DHT22;10575;50.124;8.582;2023-11-18T14:38:42;8.30;99.90
20829;DHT22;10575;50.124;8.582;2023-11-18T14:41:08;8.30;99.90
20829;DHT22;10575;50.124;8.582;2023-11-18T14:43:34;8.30;99.90
20829;DHT22;10575;50.124;8.582;2023-11-18T14:46:01;8.30;99.90
20829;DHT22;10575;50.124;8.582;2023-11-18T14:48:26;8.30;99.90
20829;DHT22;10575;50.124;8.582;2023-11-18T14:50:52;8.30;99.90
20829;DHT22;10575;50.124;8.582;2023-11-18T14:53:17;8.20;99.90
20829;DHT22;10575;50.124;8.582;2023-11-18T14:55:44;8.20;99.90
20829;DHT22;10575;50.124;8.582;2023-11-18T14:58:10;8.20;99.90
20829;DHT22;10575;50.124;8.582;2023-11-18T15:00:37;8.20;99.90
20829;DHT22;10575;50.124;8.582;2023-11-18T15:03:03;8.20;99.90
20829;DHT22;10575;50.124;8.582;2023-11-18T15:05:28;8.30;99.90
20829;DHT22;10575;50.124;8.582;2023-11-18T15:07:56;8.30;99.90
20829;DHT22;10575;50.124;8.582;2023-11-18T15:10:27;8.30;99.90
20829;DHT22;10575;50.124;8.582;2023-11-18T15:12:59;8.30;99.90
20829;DHT22;10575;50.124;8.582;2023-11-18T15:15:27;8.30;99.90
20829;DHT22;10575;50.124;8.582;2023-11-18T15:18:02;8.30;99.90
20829;DHT22;10575;50.124;8.582;2023-11-18T15:20:34;8.30;99.90
20829;DHT22;10575;50.124;8.582;2023-11-18T15:23:02;8.30;99.90
20829;DHT22;10575;50.124;8.582;2023-11-18T15:25:27;8.30;99.90
20829;DHT22;10575;50.124;8.582;2023-11-18T15:27:53;8.30;99.90
20829;DHT22;10575;50.124;8.582;2023-11-18T15:30:18;8.30;99.90
20829;DHT22;10575;50.124;8.582;2023-11-18T15:32:45;8.30;99.90
20829;DHT22;10575;50.124;8.582;2023-11-18T15:35:12;8.20;99.90
20829;DHT22;10575;50.124;8.582;2023-11-18T15:37:39;8.20;99.90
20829;DHT22;10575;50.124;8.582;2023-11-18T15:40:09;8.20;99.90
20829;DHT22;10575;50.124;8.582;2023-11-18T15:42:40;8.20;99.90
20829;DHT22;10575;50.124;8.582;2023-11-18T15:45:13;8.20;99.90
20829;DHT22;10575;50.124;8.582;2023-11-18T15:47:41;8.20;99.90
20829;DHT22;10575;50.124;8.582;2023-11-18T15:50:09;8.20;99.90
20829;DHT22;10575;50.124;8.582;2023-11-18T15:52:38;8.10;99.90
20829;DHT22;10575;50.124;8.582;2023-11-18T15:55:04;8.10;99.90
20829;DHT22;10575;50.124;8.582;2023-11-18T15:57:36;8.10;99.90
20829;DHT22;10575;50.124;8.582;2023-11-18T16:00:02;8.10;99.90
20829;DHT22;10575;50.124;8.582;2023-11-18T16:02:31;8.00;99.90
20829;DHT22;10575;50.124;8.582;2023-11-18T16:04:56;8.00;99.90
20829;DHT22;10575;50.124;8.582;2023-11-18T16:07:22;8.00;99.90